createdAt,value
2022-09-23T00:00:00.836Z,4.45
2022-09-23T00:02:48.885Z,4.07
2022-09-23T00:05:37.929Z,3.97
2022-09-23T00:08:25.560Z,4.00
2022-09-23T00:11:18.581Z,3.42
2022-09-23T00:14:06.386Z,3.88
2022-09-23T00:16:54.053Z,3.90
2022-09-23T00:19:41.138Z,3.65
2022-09-23T00:22:28.566Z,3.80
2022-09-23T00:25:15.989Z,3.85
2022-09-23T00:28:03.400Z,4.05
2022-09-23T00:30:51.349Z,4.13
2022-09-23T00:33:40.428Z,3.75
2022-09-23T00:36:28.290Z,4.07
2022-09-23T00:39:15.767Z,3.60
2022-09-23T00:42:03.162Z,4.00
2022-09-23T00:44:56.705Z,4.05
2022-09-23T00:47:52.410Z,3.20
2022-09-23T00:50:45.339Z,3.65
2022-09-23T00:53:32.583Z,3.53
2022-09-23T00:56:22.349Z,3.67
2022-09-23T00:59:11.002Z,3.22
2022-09-23T01:02:00.133Z,3.22
2022-09-23T01:04:52.188Z,3.28
2022-09-23T01:07:39.328Z,3.38
2022-09-23T01:10:29.791Z,3.20
2022-09-23T01:13:57.164Z,3.35
2022-09-23T01:17:03.994Z,3.13
2022-09-23T01:20:21.889Z,3.25
2022-09-23T01:23:47.867Z,2.72
2022-09-23T01:26:49.111Z,3.05
2022-09-23T01:29:59.364Z,3.33
2022-09-23T01:33:15.531Z,3.15
2022-09-23T01:36:29.774Z,3.40
2022-09-23T01:39:25.950Z,3.25
2022-09-23T01:42:45.585Z,3.45
2022-09-23T01:45:41.383Z,3.42
2022-09-23T01:48:39.253Z,2.88
2022-09-23T01:51:32.723Z,3.10
2022-09-23T01:54:32.223Z,3.20
2022-09-23T01:57:27.578Z,3.20
2022-09-23T02:00:18.176Z,3.13
2022-09-23T02:03:12.630Z,3.25
2022-09-23T02:06:08.632Z,3.58
2022-09-23T02:09:08.865Z,3.28
2022-09-23T02:12:02.259Z,3.30
2022-09-23T02:14:55.308Z,3.95
2022-09-23T02:17:55.572Z,3.20
2022-09-23T02:20:43.282Z,3.25
2022-09-23T02:23:45.727Z,3.30
2022-09-23T02:26:45.718Z,3.28
2022-09-23T02:29:49.278Z,3.40
2022-09-23T02:32:49.400Z,3.42
2022-09-23T02:35:49.438Z,3.00
2022-09-23T02:38:46.583Z,3.13
2022-09-23T02:41:34.077Z,3.60
2022-09-23T02:44:22.724Z,3.17
2022-09-23T02:47:10.602Z,3.60
2022-09-23T02:49:58.043Z,3.38
2022-09-23T02:52:46.219Z,3.40
2022-09-23T02:55:33.649Z,3.72
2022-09-23T02:58:21.105Z,3.90
2022-09-23T03:01:21.927Z,3.78
2022-09-23T03:04:25.713Z,3.88
2022-09-23T03:07:35.506Z,4.22
2022-09-23T03:10:34.973Z,4.13
2022-09-23T03:13:34.215Z,4.07
2022-09-23T03:16:46.248Z,4.47
2022-09-23T03:19:44.040Z,3.55
2022-09-23T03:22:35.586Z,3.50
2022-09-23T03:25:25.341Z,3.92
2022-09-23T03:28:14.173Z,3.97
2022-09-23T03:31:01.616Z,4.00
2022-09-23T03:33:54.530Z,3.92
2022-09-23T03:36:53.297Z,3.70
2022-09-23T03:39:48.590Z,3.90
2022-09-23T03:42:37.610Z,4.30
2022-09-23T03:45:30.914Z,3.85
2022-09-23T03:48:18.410Z,4.10
2022-09-23T03:51:23.739Z,4.15
2022-09-23T03:54:11.149Z,4.05
2022-09-23T03:56:58.949Z,3.67
2022-09-23T03:59:46.328Z,3.85
2022-09-23T04:02:33.912Z,4.30
2022-09-23T04:05:21.549Z,4.78
2022-09-23T04:08:08.937Z,4.32
2022-09-23T04:11:01.575Z,4.30
2022-09-23T04:13:48.999Z,4.50
2022-09-23T04:16:36.499Z,4.53
2022-09-23T04:19:23.909Z,4.55
2022-09-23T04:22:11.405Z,4.53
2022-09-23T04:24:59.220Z,4.30
2022-09-23T04:27:46.647Z,4.65
2022-09-23T04:30:34.100Z,4.65
2022-09-23T04:33:21.575Z,4.00
2022-09-23T04:36:09.033Z,4.00
2022-09-23T04:38:56.607Z,4.40
2022-09-23T04:41:44.713Z,4.38
2022-09-23T04:44:32.957Z,4.20
2022-09-23T04:47:20.404Z,4.15
2022-09-23T04:50:07.803Z,4.63
2022-09-23T04:52:55.311Z,4.03
2022-09-23T04:55:43.490Z,3.88
2022-09-23T04:58:30.513Z,4.80
2022-09-23T05:01:25.149Z,4.45
2022-09-23T05:04:14.019Z,4.10
2022-09-23T05:07:03.520Z,3.90
2022-09-23T05:09:51.074Z,3.90
2022-09-23T05:12:38.512Z,4.10
2022-09-23T05:15:26.493Z,4.00
2022-09-23T05:18:15.980Z,3.80
2022-09-23T05:21:05.729Z,3.83
2022-09-23T05:23:55.111Z,7.05
2022-09-23T05:26:42.408Z,7.20
2022-09-23T05:29:29.865Z,5.78
2022-09-23T05:32:17.350Z,36.15
2022-09-23T05:35:04.982Z,33.33
2022-09-23T05:37:52.359Z,7.40
2022-09-23T05:40:39.869Z,21.50
2022-09-23T05:43:27.800Z,33.38
2022-09-23T05:46:17.781Z,6.22
2022-09-23T05:49:06.023Z,4.40
2022-09-23T05:51:53.427Z,4.60
2022-09-23T05:54:41.190Z,3.97
2022-09-23T05:57:29.916Z,3.70
2022-09-23T06:00:17.492Z,3.80
2022-09-23T06:03:04.970Z,3.95
2022-09-23T06:05:55.448Z,3.65
2022-09-23T06:08:42.966Z,3.53
2022-09-23T06:11:31.279Z,3.40
2022-09-23T06:14:18.837Z,3.47
2022-09-23T06:17:06.298Z,3.50
2022-09-23T06:19:53.710Z,3.88
2022-09-23T06:22:41.099Z,4.00
2022-09-23T06:25:29.527Z,3.78
2022-09-23T06:28:17.003Z,4.15
2022-09-23T06:31:12.864Z,3.88
2022-09-23T06:34:12.238Z,4.07
2022-09-23T06:37:07.363Z,4.18
2022-09-23T06:39:59.511Z,3.88
2022-09-23T06:42:51.499Z,4.32
2022-09-23T06:45:39.766Z,4.07
2022-09-23T06:48:28.506Z,4.70
2022-09-23T06:51:19.222Z,4.72
2022-09-23T06:54:06.810Z,4.55
2022-09-23T06:56:54.574Z,3.90
2022-09-23T06:59:42.047Z,4.22
2022-09-23T07:02:29.557Z,4.22
2022-09-23T07:05:17.260Z,4.30
2022-09-23T07:08:09.558Z,4.63
2022-09-23T07:10:58.675Z,4.30
2022-09-23T07:13:46.104Z,4.38
2022-09-23T07:16:33.700Z,4.10
2022-09-23T07:19:20.670Z,4.38
2022-09-23T07:22:08.091Z,4.10
2022-09-23T07:24:56.014Z,4.38
2022-09-23T07:27:43.443Z,3.97
2022-09-23T07:30:30.866Z,4.15
2022-09-23T07:33:31.058Z,3.95
2022-09-23T07:36:19.672Z,3.90
2022-09-23T07:39:09.483Z,4.07
2022-09-23T07:41:56.739Z,4.00
2022-09-23T07:44:47.703Z,3.58
2022-09-23T07:47:35.299Z,3.25
2022-09-23T07:50:22.799Z,3.35
2022-09-23T07:53:10.340Z,3.88
2022-09-23T07:55:57.709Z,3.40
2022-09-23T07:58:45.088Z,3.10
2022-09-23T08:01:38.476Z,3.15
2022-09-23T08:04:29.111Z,2.63
2022-09-23T08:07:16.598Z,2.45
2022-09-23T08:10:04.151Z,3.08
2022-09-23T08:12:52.003Z,2.70
2022-09-23T08:15:40.389Z,2.70
2022-09-23T08:18:27.925Z,2.70
2022-09-23T08:21:20.539Z,2.70
2022-09-23T08:24:11.332Z,3.25
2022-09-23T08:26:58.995Z,3.05
2022-09-23T08:29:46.891Z,3.20
2022-09-23T08:32:34.324Z,2.67
2022-09-23T08:35:21.759Z,2.50
2022-09-23T08:38:09.177Z,2.83
2022-09-23T08:41:27.250Z,2.50
2022-09-23T08:44:25.108Z,2.70
2022-09-23T08:47:35.595Z,2.55
2022-09-23T08:50:26.968Z,2.58
2022-09-23T08:53:30.950Z,3.13
2022-09-23T08:56:22.114Z,3.15
2022-09-23T08:59:16.258Z,2.95
2022-09-23T09:02:14.495Z,2.95
2022-09-23T09:05:07.009Z,2.90
2022-09-23T09:07:58.224Z,2.92
2022-09-23T09:10:47.317Z,2.15
2022-09-23T09:13:43.067Z,2.50
2022-09-23T09:17:05.938Z,2.47
2022-09-23T09:20:03.107Z,2.47
2022-09-23T09:22:59.756Z,2.25
2022-09-23T09:25:59.740Z,2.60
2022-09-23T09:29:11.395Z,2.40
2022-09-23T09:32:22.746Z,2.30
2022-09-23T09:35:27.233Z,2.40
2022-09-23T09:38:15.203Z,2.60
2022-09-23T09:41:12.042Z,2.03
2022-09-23T09:44:03.370Z,2.65
2022-09-23T09:47:46.511Z,2.60
2022-09-23T09:50:45.355Z,2.30
2022-09-23T09:53:35.664Z,2.55
2022-09-23T09:56:31.573Z,2.90
2022-09-23T09:59:25.599Z,2.22
2022-09-23T10:02:29.742Z,2.30
2022-09-23T10:05:26.970Z,2.20
2022-09-23T10:08:24.744Z,2.30
2022-09-23T10:11:17.670Z,2.10
2022-09-23T10:14:17.469Z,2.17
2022-09-23T10:17:06.677Z,2.05
2022-09-23T10:20:06.895Z,2.05
2022-09-23T10:22:56.642Z,4.13
2022-09-23T10:25:55.379Z,2.90
2022-09-23T10:28:55.472Z,3.30
2022-09-23T10:31:44.133Z,2.80
2022-09-23T10:34:34.832Z,1.90
2022-09-23T10:37:30.704Z,2.05
2022-09-23T10:40:49.107Z,1.75
2022-09-23T10:44:16.274Z,2.05
2022-09-23T10:47:22.795Z,2.00
2022-09-23T10:50:23.260Z,2.13
2022-09-23T10:53:47.390Z,2.00
2022-09-23T10:56:42.940Z,2.10
2022-09-23T10:59:37.857Z,2.20
2022-09-23T11:03:01.548Z,2.30
2022-09-23T11:06:17.479Z,1.90
2022-09-23T11:09:24.566Z,1.90
2022-09-23T11:12:38.105Z,2.20
2022-09-23T11:15:55.706Z,1.95
2022-09-23T11:18:56.094Z,2.00
2022-09-23T11:22:15.937Z,2.90
2022-09-23T11:25:16.700Z,1.70
2022-09-23T11:28:13.838Z,2.22
2022-09-23T11:31:23.102Z,2.00
2022-09-23T11:34:10.620Z,2.10
2022-09-23T11:37:15.187Z,2.20
2022-09-23T11:40:12.279Z,2.35
2022-09-23T11:42:59.746Z,2.65
2022-09-23T11:45:58.695Z,2.33
2022-09-23T11:49:16.892Z,2.05
2022-09-23T11:52:20.431Z,2.63
2022-09-23T11:55:22.716Z,2.22
2022-09-23T11:58:26.027Z,2.00
2022-09-23T12:01:45.531Z,2.25
2022-09-23T12:04:58.193Z,1.98
2022-09-23T12:07:56.588Z,1.88
2022-09-23T12:11:16.064Z,1.60
2022-09-23T12:14:18.189Z,2.05
2022-09-23T12:17:29.847Z,2.10
2022-09-23T12:20:45.252Z,3.10
2022-09-23T12:24:04.760Z,2.10
2022-09-23T12:26:57.335Z,2.05
2022-09-23T12:29:58.534Z,2.17
2022-09-23T12:32:46.300Z,2.03
2022-09-23T12:35:39.992Z,1.90
2022-09-23T12:38:53.950Z,2.33
2022-09-23T12:41:49.177Z,2.10
2022-09-23T12:44:44.041Z,2.00
2022-09-23T12:47:38.090Z,3.88
2022-09-23T12:50:52.216Z,3.08
2022-09-23T12:53:50.650Z,3.00
2022-09-23T12:56:37.583Z,2.30
2022-09-23T12:59:25.282Z,1.77
2022-09-23T13:02:33.460Z,2.30
2022-09-23T13:05:41.487Z,2.60
2022-09-23T13:08:29.388Z,2.20
2022-09-23T13:11:25.792Z,1.85
2022-09-23T13:14:17.612Z,2.10
2022-09-23T13:17:05.353Z,2.22
2022-09-23T13:20:23.034Z,2.08
2022-09-23T13:23:31.379Z,2.10
2022-09-23T13:26:18.847Z,1.85
2022-09-23T13:29:13.818Z,2.00
2022-09-23T13:32:02.187Z,2.38
2022-09-23T13:35:15.681Z,2.30
2022-09-23T13:38:32.903Z,2.65
2022-09-23T13:41:24.227Z,2.47
2022-09-23T13:44:19.677Z,3.15
2022-09-23T13:47:08.879Z,2.63
2022-09-23T13:49:56.486Z,2.58
2022-09-23T13:52:43.883Z,2.50
2022-09-23T13:55:33.786Z,2.35
2022-09-23T13:58:23.829Z,2.20
2022-09-23T14:01:22.665Z,2.35
2022-09-23T14:04:24.402Z,2.58
2022-09-23T14:07:14.705Z,2.22
2022-09-23T14:10:02.999Z,2.33
2022-09-23T14:12:52.281Z,2.33
2022-09-23T14:15:39.905Z,2.10
2022-09-23T14:18:32.956Z,2.05
2022-09-23T14:21:29.589Z,2.17
2022-09-23T14:24:24.955Z,2.35
2022-09-23T14:27:15.359Z,2.10
2022-09-23T14:30:03.539Z,2.22
2022-09-23T14:32:51.255Z,1.85
2022-09-23T14:35:42.152Z,2.20
2022-09-23T14:38:49.011Z,2.10
2022-09-23T14:41:44.876Z,2.08
2022-09-23T14:44:35.492Z,1.95
2022-09-23T14:47:22.968Z,2.15
2022-09-23T14:50:36.623Z,2.75
2022-09-23T14:53:24.046Z,2.42
2022-09-23T14:56:22.369Z,2.03
2022-09-23T14:59:25.388Z,2.35
2022-09-23T15:02:33.897Z,2.08
2022-09-23T15:05:23.348Z,2.00
2022-09-23T15:08:21.184Z,2.13
2022-09-23T15:11:08.750Z,2.78
2022-09-23T15:13:56.153Z,1.90
2022-09-23T15:16:43.843Z,1.80
2022-09-23T15:19:31.667Z,2.10
2022-09-23T15:22:18.818Z,2.30
2022-09-23T15:25:17.107Z,2.50
2022-09-23T15:28:05.693Z,2.25
2022-09-23T15:30:53.329Z,2.35
2022-09-23T15:33:40.745Z,2.13
2022-09-23T15:36:28.875Z,2.17
2022-09-23T15:39:16.269Z,2.67
2022-09-23T15:42:03.783Z,2.53
2022-09-23T15:44:51.207Z,6.22
2022-09-23T15:47:38.692Z,5.22
2022-09-23T15:50:25.683Z,2.75
2022-09-23T15:53:15.835Z,2.60
2022-09-23T15:56:02.891Z,5.00
2022-09-23T15:58:50.479Z,3.22
2022-09-23T16:01:38.029Z,3.38
2022-09-23T16:04:26.091Z,5.60
2022-09-23T16:07:16.128Z,5.28
2022-09-23T16:10:03.708Z,3.20
2022-09-23T16:12:53.029Z,14.00
2022-09-23T16:15:41.119Z,3.40
2022-09-23T16:18:28.619Z,4.00
2022-09-23T16:21:19.686Z,4.78
2022-09-23T16:24:14.360Z,4.97
2022-09-23T16:27:06.022Z,4.30
2022-09-23T16:29:53.582Z,3.72
2022-09-23T16:32:41.047Z,4.43
2022-09-23T16:35:31.191Z,4.22
2022-09-23T16:38:18.612Z,3.35
2022-09-23T16:41:06.748Z,4.13
2022-09-23T16:43:54.546Z,6.00
2022-09-23T16:46:42.896Z,7.97
2022-09-23T16:49:30.458Z,4.55
2022-09-23T16:52:17.903Z,3.85
2022-09-23T16:55:05.658Z,4.70
2022-09-23T16:57:54.034Z,4.43
2022-09-23T17:01:00.436Z,5.20
2022-09-23T17:03:47.972Z,6.97
2022-09-23T17:06:35.474Z,9.52
2022-09-23T17:09:26.931Z,11.48
2022-09-23T17:12:25.866Z,11.93
2022-09-23T17:15:13.268Z,16.38
2022-09-23T17:18:00.765Z,11.80
2022-09-23T17:21:01.484Z,14.43
2022-09-23T17:23:48.993Z,10.88
2022-09-23T17:26:36.411Z,14.32
2022-09-23T17:29:26.696Z,19.33
2022-09-23T17:32:14.128Z,21.08
2022-09-23T17:35:04.547Z,21.35
2022-09-23T17:37:52.212Z,29.23
2022-09-23T17:40:40.462Z,24.35
2022-09-23T17:43:28.182Z,24.67
2022-09-23T17:46:18.539Z,22.02
2022-09-23T17:49:07.527Z,19.38
2022-09-23T17:51:56.734Z,16.70
2022-09-23T17:54:45.075Z,15.23
2022-09-23T17:57:32.110Z,14.05
2022-09-23T18:00:19.497Z,13.60
2022-09-23T18:03:07.181Z,12.98
2022-09-23T18:05:54.798Z,13.00
2022-09-23T18:08:43.958Z,12.23
2022-09-23T18:11:37.094Z,13.02
2022-09-23T18:14:24.765Z,12.35
2022-09-23T18:17:12.179Z,11.48
2022-09-23T18:19:59.632Z,10.82
2022-09-23T18:22:47.026Z,10.10
2022-09-23T18:25:39.661Z,10.25
2022-09-23T18:28:34.048Z,9.45
2022-09-23T18:31:22.456Z,8.02
2022-09-23T18:34:15.104Z,8.73
2022-09-23T18:37:02.128Z,7.72
2022-09-23T18:39:49.872Z,7.38
2022-09-23T18:42:40.206Z,7.18
2022-09-23T18:45:27.732Z,6.88
2022-09-23T18:48:34.047Z,7.10
2022-09-23T18:51:25.404Z,6.22
2022-09-23T18:54:12.821Z,6.00
2022-09-23T18:57:00.329Z,6.32
2022-09-23T18:59:47.746Z,6.40
2022-09-23T19:02:35.152Z,7.25
2022-09-23T19:05:22.466Z,6.90
2022-09-23T19:08:10.032Z,6.60
2022-09-23T19:10:58.098Z,6.43
2022-09-23T19:13:45.560Z,4.97
2022-09-23T19:16:33.188Z,5.07
2022-09-23T19:19:20.707Z,5.55
2022-09-23T19:22:08.133Z,5.00
2022-09-23T19:24:55.582Z,4.90
2022-09-23T19:27:43.648Z,4.80
2022-09-23T19:30:31.101Z,4.50
2022-09-23T19:33:18.525Z,4.50
2022-09-23T19:36:06.182Z,3.95
2022-09-23T19:38:54.669Z,4.22
2022-09-23T19:41:42.179Z,4.32
2022-09-23T19:44:29.641Z,4.60
2022-09-23T19:47:17.363Z,4.90
2022-09-23T19:50:07.227Z,4.85
2022-09-23T19:52:54.698Z,4.22
2022-09-23T19:55:44.240Z,4.35
2022-09-23T19:58:33.066Z,4.70
2022-09-23T20:01:24.848Z,4.80
2022-09-23T20:04:11.969Z,4.75
2022-09-23T20:06:59.422Z,4.80
2022-09-23T20:09:46.828Z,4.50
2022-09-23T20:12:34.295Z,4.68
2022-09-23T20:15:23.187Z,4.90
2022-09-23T20:18:10.680Z,4.50
2022-09-23T20:20:58.287Z,4.18
2022-09-23T20:23:45.857Z,6.40
2022-09-23T20:26:52.123Z,11.00
2022-09-23T20:29:39.173Z,10.75
2022-09-23T20:32:29.533Z,10.65
2022-09-23T20:35:16.966Z,22.73
2022-09-23T20:38:08.000Z,22.77
2022-09-23T20:40:59.834Z,54.80
2022-09-23T20:43:48.200Z,45.83
2022-09-23T20:46:35.848Z,45.90
2022-09-23T20:49:23.497Z,20.63
2022-09-23T20:52:11.732Z,6.38
2022-09-23T20:54:59.904Z,6.03
2022-09-23T20:57:48.556Z,28.58
2022-09-23T21:00:36.045Z,26.52
2022-09-23T21:03:24.073Z,12.50
2022-09-23T21:06:13.758Z,9.82
2022-09-23T21:09:01.649Z,34.95
2022-09-23T21:11:49.197Z,7.97
2022-09-23T21:14:36.313Z,6.90
2022-09-23T21:17:23.913Z,6.55
2022-09-23T21:20:11.450Z,5.97
2022-09-23T21:22:58.886Z,5.45
2022-09-23T21:25:46.273Z,5.07
2022-09-23T21:28:35.378Z,4.80
2022-09-23T21:31:27.798Z,4.90
2022-09-23T21:34:15.911Z,4.72
2022-09-23T21:37:03.913Z,5.40
2022-09-23T21:40:09.985Z,5.50
2022-09-23T21:43:00.290Z,4.50
2022-09-23T21:45:47.690Z,5.03
2022-09-23T21:48:41.278Z,5.40
2022-09-23T21:51:31.340Z,4.97
2022-09-23T21:54:19.116Z,5.47
2022-09-23T21:57:06.532Z,5.43
2022-09-23T21:59:54.128Z,4.90
2022-09-23T22:02:41.101Z,5.35
2022-09-23T22:05:28.546Z,7.95
2022-09-23T22:08:16.003Z,6.32
2022-09-23T22:11:05.568Z,6.10
2022-09-23T22:13:53.503Z,5.93
2022-09-23T22:16:41.681Z,6.43
2022-09-23T22:19:35.142Z,6.18
2022-09-23T22:22:23.039Z,6.20
2022-09-23T22:25:12.524Z,6.18
2022-09-23T22:28:18.505Z,5.60
2022-09-23T22:31:25.011Z,5.95
2022-09-23T22:34:37.731Z,6.10
2022-09-23T22:37:28.133Z,5.07
2022-09-23T22:40:15.878Z,5.60
2022-09-23T22:43:03.462Z,5.32
2022-09-23T22:45:51.517Z,5.53
2022-09-23T22:48:38.989Z,5.72
2022-09-23T22:51:26.773Z,5.45
2022-09-23T22:54:14.609Z,5.47
2022-09-23T22:57:04.138Z,6.13
2022-09-23T22:59:51.793Z,6.00
2022-09-23T23:02:39.904Z,5.90
2022-09-23T23:05:27.523Z,5.78
2022-09-23T23:08:17.106Z,6.00
2022-09-23T23:11:10.035Z,6.38
2022-09-23T23:14:01.297Z,6.20
2022-09-23T23:16:49.249Z,6.47
2022-09-23T23:19:37.065Z,5.80
2022-09-23T23:22:27.164Z,6.40
2022-09-23T23:25:14.733Z,6.45
2022-09-23T23:28:02.396Z,6.15
2022-09-23T23:30:49.777Z,6.28
2022-09-23T23:33:37.283Z,6.35
2022-09-23T23:36:24.775Z,6.70
2022-09-23T23:39:12.823Z,6.38
2022-09-23T23:42:00.775Z,6.20
2022-09-23T23:44:48.237Z,6.40
2022-09-23T23:47:35.890Z,6.10
2022-09-23T23:50:23.415Z,5.90
2022-09-23T23:53:11.852Z,6.38
2022-09-23T23:56:02.784Z,6.57
2022-09-23T23:58:57.393Z,6.35
